»·PEaware :: SWA154 KSAN-KABQ

SWA154 :: KSAN-KABQ

FLIGHT INFORMATION

Flight Status: Arrived
Operator:
Southwest Airlines
More flights by this operator :: More flights under this callsign
Pilot: Maximilliano F. (23467)
Aircraft: BOEING 737-800
(B738)
More flights by this aircraft type
Origin: KSAN San Diego Intl-Lindbergh
United States
Destination: KABQ Albuquerque Intl Sunport
United States
More flights between these airports :: More routes between these airports
Route: ZZOOO2 IPL J18 GBN PXR J18 SJN CABNO KRKEE3
File this flight plan on PilotEdge
Remarks: RMK / SIMBRIEF
Altitude:
(Current/Filed)
35,000ft
Speed:
(Current/Filed)
454kts
Departed: 14-Oct-19 11:57 PM
Arrived: 15-Oct-19 01:11 AM
Distance/Time
Traveled:
544nm/1:13
Distance/Time
To Go:
Arrived

Flight Plot

Page will automatically refresh every two minutes.

Flight plan parsing failed; only flown route is shown


Map Options




Map Legend


Flown Route
Filed Route
Departure Airport
Arrival Airport
Navaid (VOR, NDB)
Fix

Horizontal Profiles

Position Reports

Time Latitude Longitude Heading Altitude Ground
Speed
14-Oct-19 23:32 32.731852 -117.195861 247 21ft 0kts
14-Oct-19 23:33 32.731852 -117.195861 247 21ft 0kts
14-Oct-19 23:34 32.731852 -117.195861 247 21ft 0kts
14-Oct-19 23:35 32.731852 -117.195861 247 21ft 0kts
14-Oct-19 23:36 32.731852 -117.195861 247 21ft 0kts
14-Oct-19 23:37 32.731852 -117.195861 247 21ft 0kts
14-Oct-19 23:38 32.731852 -117.195861 247 21ft 0kts
14-Oct-19 23:39 32.731852 -117.195861 247 21ft 0kts
14-Oct-19 23:40 32.731852 -117.195861 247 21ft 0kts
14-Oct-19 23:41 32.731852 -117.195861 247 21ft 0kts
14-Oct-19 23:42 32.731852 -117.195861 247 21ft 0kts
14-Oct-19 23:43 32.731852 -117.195861 247 21ft 0kts
14-Oct-19 23:44 32.731852 -117.195861 247 21ft 0kts
14-Oct-19 23:45 32.731852 -117.195861 247 21ft 0kts
14-Oct-19 23:46 32.731901 -117.195591 281 21ft 2kts
14-Oct-19 23:47 32.731616 -117.195250 344 21ft 0kts
14-Oct-19 23:49 32.731617 -117.195250 344 21ft 0kts
14-Oct-19 23:50 32.731666 -117.195258 2 21ft 0kts
14-Oct-19 23:51 32.733321 -117.194050 49 21ft 7kts
14-Oct-19 23:52 32.732921 -117.191318 106 21ft 14kts
14-Oct-19 23:53 32.731731 -117.186402 105 20ft 16kts
14-Oct-19 23:54 32.730508 -117.181354 107 19ft 14kts
14-Oct-19 23:55 32.729590 -117.177575 107 22ft 8kts
14-Oct-19 23:56 32.730190 -117.175983 310 25ft 4kts
14-Oct-19 23:57 32.735018 -117.195725 285 47ft 183kts
14-Oct-19 23:58 32.750884 -117.260103 285 2733ft 239kts
14-Oct-19 23:59 32.727716 -117.322237 177 5975ft 278kts
15-Oct-19 00:00 32.675015 -117.262670 146 9457ft 293kts
15-Oct-19 00:01 32.626364 -117.186121 97 12163ft 333kts
15-Oct-19 00:02 32.618160 -117.073459 97 15223ft 362kts
15-Oct-19 00:03 32.604838 -116.950311 93 18379ft 383kts
15-Oct-19 00:04 32.619954 -116.823416 73 21287ft 399kts
15-Oct-19 00:05 32.638861 -116.690844 82 24034ft 417kts
15-Oct-19 00:06 32.652246 -116.550783 81 26334ft 438kts
15-Oct-19 00:07 32.666346 -116.405358 83 28462ft 457kts
15-Oct-19 00:08 32.680060 -116.264632 82 30361ft 470kts
15-Oct-19 00:09 32.694621 -116.106610 84 31987ft 492kts
15-Oct-19 00:10 32.709419 -115.943672 84 33843ft 502kts
15-Oct-19 00:10 32.722171 -115.805175 85 34948ft 518kts
15-Oct-19 00:12 32.740277 -115.606145 85 34959ft 513kts
15-Oct-19 00:12 32.750436 -115.464671 90 34965ft 515kts
15-Oct-19 00:13 32.754018 -115.295518 90 34961ft 524kts
15-Oct-19 00:15 32.758810 -115.086766 90 34947ft 545kts
15-Oct-19 00:15 32.761831 -114.937266 91 34947ft 544kts
15-Oct-19 00:16 32.765378 -114.756447 91 34950ft 549kts
15-Oct-19 00:17 32.768641 -114.576694 91 34952ft 550kts
15-Oct-19 00:18 32.771037 -114.394991 91 34957ft 552kts
15-Oct-19 00:19 32.773242 -114.227417 92 34942ft 552kts
15-Oct-19 00:20 32.775284 -114.045255 92 34952ft 554kts
15-Oct-19 00:21 32.791614 -113.861429 82 34959ft 564kts
15-Oct-19 00:22 32.817988 -113.678501 82 34962ft 561kts
15-Oct-19 00:23 32.843756 -113.495611 82 34966ft 562kts
15-Oct-19 00:24 32.869056 -113.315102 82 34954ft 561kts
15-Oct-19 00:25 32.894540 -113.131441 82 34955ft 563kts
15-Oct-19 00:26 32.919728 -112.947574 83 34961ft 564kts
15-Oct-19 00:27 32.945965 -112.763704 76 34973ft 567kts
15-Oct-19 00:28 33.013057 -112.594183 51 34984ft 564kts
15-Oct-19 00:29 33.109416 -112.449609 47 34990ft 562kts
15-Oct-19 00:30 33.205750 -112.307748 47 34974ft 562kts
15-Oct-19 00:31 33.304430 -112.161817 47 34976ft 562kts
15-Oct-19 00:32 33.403280 -112.014836 50 34982ft 562kts
15-Oct-19 00:33 33.477817 -111.848284 66 35000ft 569kts
15-Oct-19 00:34 33.541008 -111.674203 66 35005ft 568kts
15-Oct-19 00:35 33.603469 -111.501847 66 35009ft 570kts
15-Oct-19 00:36 33.665751 -111.329076 66 35001ft 571kts
15-Oct-19 00:37 33.728366 -111.153712 67 34999ft 573kts
15-Oct-19 00:38 33.791375 -110.977045 67 35097ft 576kts
15-Oct-19 00:39 33.854278 -110.799452 67 35199ft 579kts
15-Oct-19 00:40 33.917085 -110.620980 67 35204ft 580kts
15-Oct-19 00:41 33.979802 -110.442127 67 35209ft 581kts
15-Oct-19 00:42 34.040360 -110.268086 68 35191ft 580kts
15-Oct-19 00:43 34.102087 -110.090057 68 35217ft 582kts
15-Oct-19 00:44 34.164595 -109.908761 67 35260ft 584kts
15-Oct-19 00:45 34.226507 -109.728166 67 35247ft 581kts
15-Oct-19 00:46 34.287568 -109.548205 68 35244ft 579kts
15-Oct-19 00:47 34.348579 -109.368050 67 35249ft 578kts
15-Oct-19 00:48 34.407989 -109.191701 70 35231ft 577kts
15-Oct-19 00:49 34.442157 -109.002594 84 35250ft 575kts
15-Oct-19 00:50 34.465284 -108.817562 85 35257ft 539kts
15-Oct-19 00:51 34.487910 -108.635295 84 35263ft 552kts
15-Oct-19 00:52 34.513297 -108.448249 79 32366ft 561kts
15-Oct-19 00:53 34.544247 -108.271469 80 29192ft 544kts
15-Oct-19 00:54 34.573830 -108.097784 79 26614ft 508kts
15-Oct-19 00:55 34.601145 -107.936026 79 24393ft 470kts
15-Oct-19 00:56 34.631737 -107.788987 65 22788ft 435kts
15-Oct-19 00:57 34.685161 -107.661693 61 20806ft 410kts
15-Oct-19 00:58 34.736502 -107.542478 61 18891ft 386kts
15-Oct-19 00:59 34.784638 -107.430250 61 17065ft 365kts
15-Oct-19 01:00 34.830375 -107.323302 61 15120ft 358kts
15-Oct-19 01:01 34.875599 -107.214910 62 13264ft 351kts
15-Oct-19 01:02 34.916315 -107.117346 60 12194ft 307kts
15-Oct-19 01:03 34.955345 -107.025812 61 10694ft 295kts
15-Oct-19 01:04 34.991260 -106.939105 63 9682ft 283kts
15-Oct-19 01:05 35.023248 -106.857308 63 8686ft 253kts
15-Oct-19 01:06 35.044005 -106.782470 83 7790ft 217kts
15-Oct-19 01:07 35.044831 -106.720062 87 6976ft 164kts
15-Oct-19 01:08 35.044556 -106.662652 87 6074ft 170kts
15-Oct-19 01:09 35.044277 -106.607667 89 5323ft 143kts
15-Oct-19 01:10 35.044763 -106.592060 61 5340ft 14kts
15-Oct-19 01:11 35.045822 -106.592203 270 5340ft 8kts
15-Oct-19 01:12 35.045844 -106.596842 270 5336ft 14kts
15-Oct-19 01:13 35.045751 -106.603059 270 5326ft 20kts
15-Oct-19 01:14 35.045838 -106.610006 267 5322ft 18kts
15-Oct-19 01:15 35.046890 -106.613089 3 5323ft 6kts
15-Oct-19 01:16 35.048334 -106.613861 254 5323ft 4kts
15-Oct-19 01:17 35.047942 -106.614282 205 5322ft 3kts
15-Oct-19 01:18 35.047868 -106.614329 207 5322ft 0kts
15-Oct-19 01:19 35.047868 -106.614329 207 5322ft 0kts

Navigation Log

Ident Type
Flight plan parsing failed, navigation log unavailable